sensor_id;sensor_type;location;lat;lon;timestamp;P1;durP1;ratioP1;P2;durP2;ratioP2
49962;SDS011;36180;57.678;11.910;2022-07-29T00:00:39;7.70;;;4.43;;
49962;SDS011;36180;57.678;11.910;2022-07-29T00:03:05;11.43;;;4.75;;
49962;SDS011;36180;57.678;11.910;2022-07-29T00:05:32;16.42;;;5.22;;
49962;SDS011;36180;57.678;11.910;2022-07-29T00:08:01;15.90;;;5.28;;
49962;SDS011;36180;57.678;11.910;2022-07-29T00:10:28;13.38;;;4.28;;
49962;SDS011;36180;57.678;11.910;2022-07-29T00:12:55;8.20;;;3.60;;
49962;SDS011;36180;57.678;11.910;2022-07-29T00:15:22;12.85;;;3.35;;
49962;SDS011;36180;57.678;11.910;2022-07-29T00:17:49;8.93;;;3.00;;
49962;SDS011;36180;57.678;11.910;2022-07-29T00:20:16;10.02;;;3.20;;
49962;SDS011;36180;57.678;11.910;2022-07-29T00:22:43;11.23;;;3.17;;
49962;SDS011;36180;57.678;11.910;2022-07-29T00:25:12;10.30;;;3.03;;
49962;SDS011;36180;57.678;11.910;2022-07-29T00:27:39;8.10;;;2.80;;
49962;SDS011;36180;57.678;11.910;2022-07-29T00:30:07;8.05;;;3.05;;
49962;SDS011;36180;57.678;11.910;2022-07-29T00:32:34;12.82;;;3.42;;
49962;SDS011;36180;57.678;11.910;2022-07-29T00:35:01;8.23;;;3.25;;
49962;SDS011;36180;57.678;11.910;2022-07-29T00:37:46;11.68;;;2.95;;
49962;SDS011;36180;57.678;11.910;2022-07-29T00:40:14;8.50;;;3.45;;
49962;SDS011;36180;57.678;11.910;2022-07-29T00:42:42;12.10;;;3.90;;
49962;SDS011;36180;57.678;11.910;2022-07-29T00:45:10;10.82;;;4.15;;
49962;SDS011;36180;57.678;11.910;2022-07-29T00:47:37;11.60;;;5.88;;
49962;SDS011;36180;57.678;11.910;2022-07-29T00:50:04;13.23;;;5.65;;
49962;SDS011;36180;57.678;11.910;2022-07-29T00:52:33;15.00;;;5.22;;
49962;SDS011;36180;57.678;11.910;2022-07-29T00:55:00;10.25;;;4.88;;
49962;SDS011;36180;57.678;11.910;2022-07-29T00:57:29;16.83;;;6.70;;
49962;SDS011;36180;57.678;11.910;2022-07-29T00:59:57;10.80;;;6.25;;
49962;SDS011;36180;57.678;11.910;2022-07-29T01:02:24;10.77;;;6.00;;
49962;SDS011;36180;57.678;11.910;2022-07-29T01:04:50;14.95;;;6.00;;
49962;SDS011;36180;57.678;11.910;2022-07-29T01:07:18;10.38;;;4.97;;
49962;SDS011;36180;57.678;11.910;2022-07-29T01:09:45;8.63;;;3.85;;
49962;SDS011;36180;57.678;11.910;2022-07-29T01:12:13;12.05;;;4.15;;
49962;SDS011;36180;57.678;11.910;2022-07-29T01:14:43;15.50;;;4.35;;
49962;SDS011;36180;57.678;11.910;2022-07-29T01:17:12;9.90;;;3.67;;
49962;SDS011;36180;57.678;11.910;2022-07-29T01:19:45;9.77;;;3.20;;
49962;SDS011;36180;57.678;11.910;2022-07-29T01:22:22;12.05;;;3.20;;
49962;SDS011;36180;57.678;11.910;2022-07-29T01:25:10;10.85;;;2.60;;
49962;SDS011;36180;57.678;11.910;2022-07-29T01:27:47;8.35;;;3.20;;
49962;SDS011;36180;57.678;11.910;2022-07-29T01:30:24;8.63;;;3.20;;
49962;SDS011;36180;57.678;11.910;2022-07-29T01:32:52;7.72;;;3.17;;
49962;SDS011;36180;57.678;11.910;2022-07-29T01:35:26;6.10;;;2.55;;
49962;SDS011;36180;57.678;11.910;2022-07-29T01:37:55;8.63;;;2.45;;
49962;SDS011;36180;57.678;11.910;2022-07-29T01:40:27;11.80;;;2.38;;
49962;SDS011;36180;57.678;11.910;2022-07-29T01:42:58;11.48;;;3.13;;
49962;SDS011;36180;57.678;11.910;2022-07-29T01:45:32;9.35;;;3.00;;
49962;SDS011;36180;57.678;11.910;2022-07-29T01:48:06;10.30;;;2.90;;
49962;SDS011;36180;57.678;11.910;2022-07-29T01:50:40;8.82;;;2.58;;
49962;SDS011;36180;57.678;11.910;2022-07-29T01:53:11;10.82;;;2.83;;
49962;SDS011;36180;57.678;11.910;2022-07-29T01:55:40;8.85;;;2.53;;
49962;SDS011;36180;57.678;11.910;2022-07-29T01:58:09;8.10;;;2.28;;
49962;SDS011;36180;57.678;11.910;2022-07-29T02:00:39;11.32;;;3.08;;
49962;SDS011;36180;57.678;11.910;2022-07-29T02:03:08;9.30;;;2.83;;
49962;SDS011;36180;57.678;11.910;2022-07-29T02:05:37;9.63;;;2.90;;
49962;SDS011;36180;57.678;11.910;2022-07-29T02:08:05;11.65;;;3.47;;
49962;SDS011;36180;57.678;11.910;2022-07-29T02:10:34;6.03;;;2.50;;
49962;SDS011;36180;57.678;11.910;2022-07-29T02:13:01;10.23;;;2.85;;
49962;SDS011;36180;57.678;11.910;2022-07-29T02:15:30;8.60;;;2.65;;
49962;SDS011;36180;57.678;11.910;2022-07-29T02:18:01;8.77;;;2.47;;
49962;SDS011;36180;57.678;11.910;2022-07-29T02:20:29;8.77;;;2.95;;
49962;SDS011;36180;57.678;11.910;2022-07-29T02:22:56;9.98;;;2.95;;
49962;SDS011;36180;57.678;11.910;2022-07-29T02:25:24;7.60;;;2.85;;
49962;SDS011;36180;57.678;11.910;2022-07-29T02:27:51;8.07;;;2.67;;
49962;SDS011;36180;57.678;11.910;2022-07-29T02:30:19;10.02;;;2.92;;
49962;SDS011;36180;57.678;11.910;2022-07-29T02:32:47;8.40;;;2.25;;
49962;SDS011;36180;57.678;11.910;2022-07-29T02:35:17;10.07;;;3.00;;
49962;SDS011;36180;57.678;11.910;2022-07-29T02:37:45;9.13;;;2.80;;
49962;SDS011;36180;57.678;11.910;2022-07-29T02:40:34;7.57;;;2.80;;
49962;SDS011;36180;57.678;11.910;2022-07-29T02:43:04;8.70;;;3.38;;
49962;SDS011;36180;57.678;11.910;2022-07-29T02:45:32;8.60;;;2.95;;
49962;SDS011;36180;57.678;11.910;2022-07-29T02:48:00;9.15;;;2.92;;
49962;SDS011;36180;57.678;11.910;2022-07-29T02:50:33;7.68;;;3.00;;
49962;SDS011;36180;57.678;11.910;2022-07-29T02:53:05;7.80;;;2.95;;
49962;SDS011;36180;57.678;11.910;2022-07-29T02:55:36;10.32;;;3.40;;
49962;SDS011;36180;57.678;11.910;2022-07-29T02:58:07;11.35;;;3.50;;
49962;SDS011;36180;57.678;11.910;2022-07-29T03:00:37;9.63;;;2.85;;
49962;SDS011;36180;57.678;11.910;2022-07-29T03:03:07;7.28;;;2.60;;
49962;SDS011;36180;57.678;11.910;2022-07-29T03:05:39;7.28;;;3.10;;
49962;SDS011;36180;57.678;11.910;2022-07-29T03:08:06;6.10;;;2.58;;
49962;SDS011;36180;57.678;11.910;2022-07-29T03:10:35;8.18;;;2.83;;
49962;SDS011;36180;57.678;11.910;2022-07-29T03:13:04;10.20;;;3.85;;
49962;SDS011;36180;57.678;11.910;2022-07-29T03:15:31;11.40;;;3.92;;
49962;SDS011;36180;57.678;11.910;2022-07-29T03:17:59;15.07;;;5.07;;
49962;SDS011;36180;57.678;11.910;2022-07-29T03:20:26;9.55;;;4.93;;
49962;SDS011;36180;57.678;11.910;2022-07-29T03:22:54;13.48;;;5.50;;
49962;SDS011;36180;57.678;11.910;2022-07-29T03:25:22;13.27;;;5.15;;
49962;SDS011;36180;57.678;11.910;2022-07-29T03:27:49;10.15;;;4.60;;
49962;SDS011;36180;57.678;11.910;2022-07-29T03:30:16;12.20;;;4.95;;
49962;SDS011;36180;57.678;11.910;2022-07-29T03:32:43;8.45;;;5.03;;
49962;SDS011;36180;57.678;11.910;2022-07-29T03:35:10;9.10;;;4.65;;
49962;SDS011;36180;57.678;11.910;2022-07-29T03:37:37;10.32;;;4.60;;
49962;SDS011;36180;57.678;11.910;2022-07-29T03:40:07;10.35;;;4.88;;
49962;SDS011;36180;57.678;11.910;2022-07-29T03:42:35;11.95;;;4.15;;
49962;SDS011;36180;57.678;11.910;2022-07-29T03:45:05;8.85;;;4.00;;
49962;SDS011;36180;57.678;11.910;2022-07-29T03:47:35;9.80;;;3.40;;
49962;SDS011;36180;57.678;11.910;2022-07-29T03:50:04;10.52;;;3.78;;
49962;SDS011;36180;57.678;11.910;2022-07-29T03:52:33;8.88;;;4.20;;
49962;SDS011;36180;57.678;11.910;2022-07-29T03:55:00;11.63;;;3.30;;
49962;SDS011;36180;57.678;11.910;2022-07-29T03:57:29;12.32;;;4.13;;
49962;SDS011;36180;57.678;11.910;2022-07-29T03:59:57;14.00;;;3.70;;
49962;SDS011;36180;57.678;11.910;2022-07-29T04:02:24;10.98;;;3.80;;
49962;SDS011;36180;57.678;11.910;2022-07-29T04:04:52;10.55;;;3.95;;
49962;SDS011;36180;57.678;11.910;2022-07-29T04:07:19;15.07;;;4.45;;
49962;SDS011;36180;57.678;11.910;2022-07-29T04:09:46;11.18;;;4.72;;
49962;SDS011;36180;57.678;11.910;2022-07-29T04:12:13;12.73;;;4.43;;
49962;SDS011;36180;57.678;11.910;2022-07-29T04:14:41;11.23;;;3.92;;
49962;SDS011;36180;57.678;11.910;2022-07-29T04:17:08;10.65;;;3.90;;
49962;SDS011;36180;57.678;11.910;2022-07-29T04:19:35;9.75;;;4.10;;
49962;SDS011;36180;57.678;11.910;2022-07-29T04:22:02;6.85;;;3.53;;
49962;SDS011;36180;57.678;11.910;2022-07-29T04:24:29;10.10;;;4.00;;
49962;SDS011;36180;57.678;11.910;2022-07-29T04:26:56;10.02;;;4.18;;
49962;SDS011;36180;57.678;11.910;2022-07-29T04:29:23;7.78;;;3.58;;
49962;SDS011;36180;57.678;11.910;2022-07-29T04:31:51;9.48;;;3.92;;
49962;SDS011;36180;57.678;11.910;2022-07-29T04:34:18;11.13;;;3.50;;
49962;SDS011;36180;57.678;11.910;2022-07-29T04:36:46;9.20;;;3.53;;
49962;SDS011;36180;57.678;11.910;2022-07-29T04:39:13;18.35;;;4.13;;
49962;SDS011;36180;57.678;11.910;2022-07-29T04:41:40;12.30;;;3.22;;
49962;SDS011;36180;57.678;11.910;2022-07-29T04:44:07;11.10;;;3.20;;
49962;SDS011;36180;57.678;11.910;2022-07-29T04:46:34;10.70;;;3.90;;
49962;SDS011;36180;57.678;11.910;2022-07-29T04:49:03;10.60;;;2.65;;
49962;SDS011;36180;57.678;11.910;2022-07-29T04:51:30;7.68;;;3.30;;
49962;SDS011;36180;57.678;11.910;2022-07-29T04:53:57;9.65;;;2.92;;
49962;SDS011;36180;57.678;11.910;2022-07-29T04:56:24;5.63;;;2.97;;
49962;SDS011;36180;57.678;11.910;2022-07-29T04:58:51;12.18;;;3.90;;
49962;SDS011;36180;57.678;11.910;2022-07-29T05:01:18;6.30;;;2.83;;
49962;SDS011;36180;57.678;11.910;2022-07-29T05:03:45;11.18;;;3.67;;
49962;SDS011;36180;57.678;11.910;2022-07-29T05:06:14;10.55;;;5.30;;
49962;SDS011;36180;57.678;11.910;2022-07-29T05:08:41;11.07;;;4.68;;
49962;SDS011;36180;57.678;11.910;2022-07-29T05:11:08;10.63;;;4.85;;
49962;SDS011;36180;57.678;11.910;2022-07-29T05:13:35;11.27;;;5.45;;
49962;SDS011;36180;57.678;11.910;2022-07-29T05:16:02;14.27;;;5.70;;
49962;SDS011;36180;57.678;11.910;2022-07-29T05:18:29;10.82;;;4.70;;
49962;SDS011;36180;57.678;11.910;2022-07-29T05:20:57;11.95;;;4.85;;
49962;SDS011;36180;57.678;11.910;2022-07-29T05:23:25;9.75;;;4.18;;
49962;SDS011;36180;57.678;11.910;2022-07-29T05:25:52;11.20;;;3.10;;
49962;SDS011;36180;57.678;11.910;2022-07-29T05:28:19;7.47;;;3.88;;
49962;SDS011;36180;57.678;11.910;2022-07-29T05:30:46;8.95;;;3.83;;
49962;SDS011;36180;57.678;11.910;2022-07-29T05:33:14;7.68;;;3.85;;
49962;SDS011;36180;57.678;11.910;2022-07-29T05:35:41;12.43;;;4.50;;
49962;SDS011;36180;57.678;11.910;2022-07-29T05:38:08;10.18;;;4.50;;
49962;SDS011;36180;57.678;11.910;2022-07-29T05:40:36;7.65;;;3.78;;
49962;SDS011;36180;57.678;11.910;2022-07-29T05:43:03;9.77;;;4.88;;
49962;SDS011;36180;57.678;11.910;2022-07-29T05:45:30;8.05;;;4.57;;
49962;SDS011;36180;57.678;11.910;2022-07-29T05:47:57;10.30;;;4.97;;
49962;SDS011;36180;57.678;11.910;2022-07-29T05:50:24;8.73;;;5.03;;
49962;SDS011;36180;57.678;11.910;2022-07-29T05:52:51;10.73;;;4.95;;
49962;SDS011;36180;57.678;11.910;2022-07-29T05:55:18;9.50;;;5.55;;
49962;SDS011;36180;57.678;11.910;2022-07-29T05:57:46;11.90;;;5.15;;
49962;SDS011;36180;57.678;11.910;2022-07-29T06:00:14;10.85;;;5.03;;
49962;SDS011;36180;57.678;11.910;2022-07-29T06:02:41;9.82;;;5.68;;
49962;SDS011;36180;57.678;11.910;2022-07-29T06:05:08;8.82;;;4.97;;
49962;SDS011;36180;57.678;11.910;2022-07-29T06:07:35;9.05;;;4.43;;
49962;SDS011;36180;57.678;11.910;2022-07-29T06:10:03;12.10;;;4.43;;
49962;SDS011;36180;57.678;11.910;2022-07-29T06:12:30;12.23;;;5.53;;
49962;SDS011;36180;57.678;11.910;2022-07-29T06:14:58;9.73;;;4.80;;
49962;SDS011;36180;57.678;11.910;2022-07-29T06:17:25;7.90;;;4.55;;
49962;SDS011;36180;57.678;11.910;2022-07-29T06:19:52;12.10;;;5.25;;
49962;SDS011;36180;57.678;11.910;2022-07-29T06:22:19;11.70;;;3.40;;
49962;SDS011;36180;57.678;11.910;2022-07-29T06:24:46;6.80;;;2.38;;
49962;SDS011;36180;57.678;11.910;2022-07-29T06:27:13;7.53;;;2.95;;
49962;SDS011;36180;57.678;11.910;2022-07-29T06:29:41;5.13;;;2.20;;
49962;SDS011;36180;57.678;11.910;2022-07-29T06:32:10;7.68;;;2.10;;
49962;SDS011;36180;57.678;11.910;2022-07-29T06:34:36;5.75;;;1.83;;
49962;SDS011;36180;57.678;11.910;2022-07-29T06:37:07;4.30;;;1.73;;
49962;SDS011;36180;57.678;11.910;2022-07-29T06:39:34;5.72;;;1.90;;
49962;SDS011;36180;57.678;11.910;2022-07-29T06:42:02;7.47;;;2.05;;
49962;SDS011;36180;57.678;11.910;2022-07-29T06:44:30;6.90;;;2.35;;
49962;SDS011;36180;57.678;11.910;2022-07-29T06:46:58;6.65;;;1.75;;
49962;SDS011;36180;57.678;11.910;2022-07-29T06:49:27;12.32;;;2.17;;
49962;SDS011;36180;57.678;11.910;2022-07-29T06:51:54;5.15;;;1.77;;
49962;SDS011;36180;57.678;11.910;2022-07-29T06:54:21;4.68;;;1.92;;
49962;SDS011;36180;57.678;11.910;2022-07-29T06:56:48;7.60;;;2.05;;
49962;SDS011;36180;57.678;11.910;2022-07-29T06:59:15;11.43;;;2.28;;
49962;SDS011;36180;57.678;11.910;2022-07-29T07:01:42;8.40;;;2.50;;
49962;SDS011;36180;57.678;11.910;2022-07-29T07:04:09;8.75;;;2.72;;
49962;SDS011;36180;57.678;11.910;2022-07-29T07:06:38;7.00;;;1.67;;
49962;SDS011;36180;57.678;11.910;2022-07-29T07:09:06;7.43;;;1.80;;
49962;SDS011;36180;57.678;11.910;2022-07-29T07:11:33;3.50;;;1.85;;
49962;SDS011;36180;57.678;11.910;2022-07-29T07:14:00;8.93;;;2.03;;
49962;SDS011;36180;57.678;11.910;2022-07-29T07:16:26;5.28;;;1.60;;
49962;SDS011;36180;57.678;11.910;2022-07-29T07:18:54;5.40;;;2.15;;
49962;SDS011;36180;57.678;11.910;2022-07-29T07:21:21;4.72;;;1.92;;
49962;SDS011;36180;57.678;11.910;2022-07-29T07:23:49;5.70;;;1.80;;
49962;SDS011;36180;57.678;11.910;2022-07-29T07:26:16;6.07;;;1.85;;
49962;SDS011;36180;57.678;11.910;2022-07-29T07:28:43;4.47;;;1.90;;
49962;SDS011;36180;57.678;11.910;2022-07-29T07:31:10;5.53;;;2.17;;
49962;SDS011;36180;57.678;11.910;2022-07-29T07:33:37;7.35;;;1.48;;
49962;SDS011;36180;57.678;11.910;2022-07-29T07:36:04;5.03;;;1.83;;
49962;SDS011;36180;57.678;11.910;2022-07-29T07:38:31;4.40;;;1.55;;
49962;SDS011;36180;57.678;11.910;2022-07-29T07:41:01;4.25;;;1.90;;
49962;SDS011;36180;57.678;11.910;2022-07-29T07:43:28;6.35;;;2.08;;
49962;SDS011;36180;57.678;11.910;2022-07-29T07:45:55;6.15;;;2.25;;
49962;SDS011;36180;57.678;11.910;2022-07-29T07:48:23;7.13;;;2.10;;
49962;SDS011;36180;57.678;11.910;2022-07-29T07:50:50;10.57;;;2.25;;
49962;SDS011;36180;57.678;11.910;2022-07-29T07:53:17;7.20;;;1.88;;
49962;SDS011;36180;57.678;11.910;2022-07-29T07:55:44;5.15;;;1.92;;
49962;SDS011;36180;57.678;11.910;2022-07-29T07:58:12;7.57;;;1.92;;
49962;SDS011;36180;57.678;11.910;2022-07-29T08:07:05;5.95;;;2.10;;
49962;SDS011;36180;57.678;11.910;2022-07-29T08:09:34;4.55;;;1.80;;
49962;SDS011;36180;57.678;11.910;2022-07-29T08:12:01;7.60;;;1.98;;
49962;SDS011;36180;57.678;11.910;2022-07-29T08:14:32;9.10;;;2.10;;
49962;SDS011;36180;57.678;11.910;2022-07-29T08:16:59;6.30;;;1.85;;
49962;SDS011;36180;57.678;11.910;2022-07-29T08:19:26;7.38;;;2.38;;
49962;SDS011;36180;57.678;11.910;2022-07-29T08:21:53;7.60;;;1.83;;
49962;SDS011;36180;57.678;11.910;2022-07-29T08:24:20;5.25;;;1.70;;
49962;SDS011;36180;57.678;11.910;2022-07-29T08:27:05;7.03;;;2.55;;
49962;SDS011;36180;57.678;11.910;2022-07-29T08:29:34;8.88;;;2.13;;
49962;SDS011;36180;57.678;11.910;2022-07-29T08:32:01;6.40;;;1.92;;
49962;SDS011;36180;57.678;11.910;2022-07-29T08:34:29;5.38;;;1.75;;
49962;SDS011;36180;57.678;11.910;2022-07-29T08:36:56;7.25;;;1.70;;
49962;SDS011;36180;57.678;11.910;2022-07-29T08:39:23;8.02;;;2.03;;
49962;SDS011;36180;57.678;11.910;2022-07-29T08:41:51;6.53;;;1.73;;
49962;SDS011;36180;57.678;11.910;2022-07-29T08:44:20;6.15;;;2.40;;
49962;SDS011;36180;57.678;11.910;2022-07-29T08:46:49;6.07;;;1.88;;
49962;SDS011;36180;57.678;11.910;2022-07-29T08:49:16;5.65;;;2.28;;
49962;SDS011;36180;57.678;11.910;2022-07-29T08:51:43;7.30;;;2.60;;
49962;SDS011;36180;57.678;11.910;2022-07-29T08:54:11;8.05;;;2.35;;
49962;SDS011;36180;57.678;11.910;2022-07-29T08:56:38;4.95;;;2.17;;
49962;SDS011;36180;57.678;11.910;2022-07-29T08:59:06;5.85;;;2.10;;
49962;SDS011;36180;57.678;11.910;2022-07-29T09:01:34;6.78;;;1.95;;
49962;SDS011;36180;57.678;11.910;2022-07-29T09:04:06;6.53;;;2.10;;
49962;SDS011;36180;57.678;11.910;2022-07-29T09:06:39;4.22;;;2.05;;
49962;SDS011;36180;57.678;11.910;2022-07-29T09:11:37;6.60;;;2.03;;
49962;SDS011;36180;57.678;11.910;2022-07-29T09:14:04;6.53;;;1.95;;
49962;SDS011;36180;57.678;11.910;2022-07-29T09:16:46;4.15;;;1.45;;
49962;SDS011;36180;57.678;11.910;2022-07-29T09:19:27;5.78;;;2.30;;
49962;SDS011;36180;57.678;11.910;2022-07-29T09:21:56;5.45;;;1.90;;
49962;SDS011;36180;57.678;11.910;2022-07-29T09:24:23;7.55;;;1.80;;
49962;SDS011;36180;57.678;11.910;2022-07-29T09:26:50;8.00;;;1.98;;
49962;SDS011;36180;57.678;11.910;2022-07-29T09:29:18;4.75;;;1.80;;
49962;SDS011;36180;57.678;11.910;2022-07-29T09:31:47;7.93;;;1.90;;
49962;SDS011;36180;57.678;11.910;2022-07-29T09:34:16;3.92;;;1.60;;
49962;SDS011;36180;57.678;11.910;2022-07-29T09:36:49;4.93;;;1.90;;
49962;SDS011;36180;57.678;11.910;2022-07-29T09:39:26;7.47;;;1.63;;
49962;SDS011;36180;57.678;11.910;2022-07-29T09:41:55;3.50;;;1.65;;
49962;SDS011;36180;57.678;11.910;2022-07-29T09:44:23;5.55;;;2.00;;
49962;SDS011;36180;57.678;11.910;2022-07-29T09:46:54;8.88;;;2.20;;
49962;SDS011;36180;57.678;11.910;2022-07-29T09:49:22;3.10;;;1.50;;
49962;SDS011;36180;57.678;11.910;2022-07-29T09:51:59;2.72;;;1.73;;
49962;SDS011;36180;57.678;11.910;2022-07-29T09:54:28;2.97;;;1.10;;
49962;SDS011;36180;57.678;11.910;2022-07-29T09:57:01;3.38;;;1.30;;
49962;SDS011;36180;57.678;11.910;2022-07-29T09:59:30;6.70;;;1.17;;
49962;SDS011;36180;57.678;11.910;2022-07-29T10:01:57;4.55;;;1.25;;
49962;SDS011;36180;57.678;11.910;2022-07-29T10:04:35;3.13;;;1.23;;
49962;SDS011;36180;57.678;11.910;2022-07-29T10:07:07;4.15;;;1.20;;
49962;SDS011;36180;57.678;11.910;2022-07-29T10:09:35;1.85;;;1.20;;
49962;SDS011;36180;57.678;11.910;2022-07-29T10:12:03;5.25;;;1.63;;
49962;SDS011;36180;57.678;11.910;2022-07-29T10:14:36;3.95;;;1.50;;
49962;SDS011;36180;57.678;11.910;2022-07-29T10:17:04;4.45;;;1.40;;
49962;SDS011;36180;57.678;11.910;2022-07-29T10:19:31;3.53;;;1.30;;
49962;SDS011;36180;57.678;11.910;2022-07-29T10:21:59;3.28;;;1.35;;
49962;SDS011;36180;57.678;11.910;2022-07-29T10:24:30;3.60;;;1.45;;
49962;SDS011;36180;57.678;11.910;2022-07-29T10:26:58;6.50;;;1.38;;
49962;SDS011;36180;57.678;11.910;2022-07-29T10:29:27;4.05;;;1.50;;
49962;SDS011;36180;57.678;11.910;2022-07-29T10:35:12;2.80;;;1.08;;
49962;SDS011;36180;57.678;11.910;2022-07-29T10:37:57;3.83;;;1.35;;
49962;SDS011;36180;57.678;11.910;2022-07-29T10:40:51;5.95;;;2.30;;
49962;SDS011;36180;57.678;11.910;2022-07-29T10:43:42;5.53;;;1.50;;
49962;SDS011;36180;57.678;11.910;2022-07-29T10:46:11;3.10;;;1.23;;
49962;SDS011;36180;57.678;11.910;2022-07-29T10:51:54;4.47;;;1.30;;
49962;SDS011;36180;57.678;11.910;2022-07-29T10:54:36;7.40;;;1.50;;
49962;SDS011;36180;57.678;11.910;2022-07-29T10:57:16;2.70;;;1.13;;
49962;SDS011;36180;57.678;11.910;2022-07-29T10:59:45;2.25;;;1.20;;
49962;SDS011;36180;57.678;11.910;2022-07-29T11:05:08;7.28;;;1.10;;
49962;SDS011;36180;57.678;11.910;2022-07-29T11:07:37;5.85;;;1.23;;
49962;SDS011;36180;57.678;11.910;2022-07-29T11:10:21;3.58;;;1.20;;
49962;SDS011;36180;57.678;11.910;2022-07-29T11:12:51;2.80;;;1.17;;
49962;SDS011;36180;57.678;11.910;2022-07-29T11:15:18;5.28;;;1.27;;
49962;SDS011;36180;57.678;11.910;2022-07-29T11:18:06;5.47;;;1.60;;
49962;SDS011;36180;57.678;11.910;2022-07-29T11:20:34;3.35;;;1.25;;
49962;SDS011;36180;57.678;11.910;2022-07-29T11:23:16;4.80;;;1.42;;
49962;SDS011;36180;57.678;11.910;2022-07-29T11:25:44;3.35;;;1.20;;
49962;SDS011;36180;57.678;11.910;2022-07-29T11:28:15;7.15;;;1.88;;
49962;SDS011;36180;57.678;11.910;2022-07-29T11:30:47;2.75;;;1.23;;
49962;SDS011;36180;57.678;11.910;2022-07-29T11:36:09;3.63;;;1.38;;
49962;SDS011;36180;57.678;11.910;2022-07-29T11:38:38;4.60;;;1.50;;
49962;SDS011;36180;57.678;11.910;2022-07-29T11:41:21;8.82;;;1.73;;
49962;SDS011;36180;57.678;11.910;2022-07-29T11:43:51;4.72;;;1.40;;
49962;SDS011;36180;57.678;11.910;2022-07-29T11:49:18;2.65;;;1.30;;
49962;SDS011;36180;57.678;11.910;2022-07-29T11:51:49;4.72;;;1.52;;
49962;SDS011;36180;57.678;11.910;2022-07-29T11:54:21;3.97;;;1.67;;
49962;SDS011;36180;57.678;11.910;2022-07-29T11:56:53;3.05;;;1.20;;
49962;SDS011;36180;57.678;11.910;2022-07-29T11:59:21;4.57;;;1.65;;
49962;SDS011;36180;57.678;11.910;2022-07-29T12:01:51;2.30;;;1.30;;
49962;SDS011;36180;57.678;11.910;2022-07-29T12:04:19;4.38;;;1.30;;
49962;SDS011;36180;57.678;11.910;2022-07-29T12:06:49;6.43;;;1.27;;
49962;SDS011;36180;57.678;11.910;2022-07-29T12:09:16;5.78;;;1.90;;
49962;SDS011;36180;57.678;11.910;2022-07-29T12:11:44;4.18;;;1.40;;
49962;SDS011;36180;57.678;11.910;2022-07-29T12:14:25;3.53;;;1.13;;
49962;SDS011;36180;57.678;11.910;2022-07-29T12:16:53;2.25;;;1.27;;
49962;SDS011;36180;57.678;11.910;2022-07-29T12:19:20;4.55;;;1.58;;
49962;SDS011;36180;57.678;11.910;2022-07-29T12:21:48;4.63;;;1.50;;
49962;SDS011;36180;57.678;11.910;2022-07-29T12:24:17;3.78;;;1.50;;
49962;SDS011;36180;57.678;11.910;2022-07-29T12:26:51;4.20;;;1.50;;
49962;SDS011;36180;57.678;11.910;2022-07-29T12:29:19;4.00;;;1.38;;
49962;SDS011;36180;57.678;11.910;2022-07-29T12:31:50;3.08;;;1.23;;
49962;SDS011;36180;57.678;11.910;2022-07-29T12:34:19;5.50;;;1.50;;
49962;SDS011;36180;57.678;11.910;2022-07-29T12:36:48;3.50;;;1.27;;
49962;SDS011;36180;57.678;11.910;2022-07-29T12:39:16;2.67;;;1.27;;
49962;SDS011;36180;57.678;11.910;2022-07-29T12:41:43;3.95;;;1.40;;
49962;SDS011;36180;57.678;11.910;2022-07-29T12:44:11;4.90;;;1.40;;
49962;SDS011;36180;57.678;11.910;2022-07-29T12:46:38;2.75;;;1.20;;
49962;SDS011;36180;57.678;11.910;2022-07-29T12:49:06;4.05;;;1.05;;
49962;SDS011;36180;57.678;11.910;2022-07-29T12:51:34;3.83;;;1.30;;
49962;SDS011;36180;57.678;11.910;2022-07-29T12:54:03;3.63;;;1.38;;
49962;SDS011;36180;57.678;11.910;2022-07-29T12:56:35;4.38;;;1.58;;
49962;SDS011;36180;57.678;11.910;2022-07-29T12:59:11;7.25;;;1.55;;
49962;SDS011;36180;57.678;11.910;2022-07-29T13:01:39;2.55;;;1.25;;
49962;SDS011;36180;57.678;11.910;2022-07-29T13:04:07;3.47;;;1.23;;
49962;SDS011;36180;57.678;11.910;2022-07-29T13:06:35;4.20;;;1.25;;
49962;SDS011;36180;57.678;11.910;2022-07-29T13:09:08;4.35;;;1.30;;
49962;SDS011;36180;57.678;11.910;2022-07-29T13:11:38;3.50;;;1.15;;
49962;SDS011;36180;57.678;11.910;2022-07-29T13:14:06;4.50;;;1.17;;
49962;SDS011;36180;57.678;11.910;2022-07-29T13:16:35;2.78;;;1.05;;
49962;SDS011;36180;57.678;11.910;2022-07-29T13:19:03;2.58;;;0.98;;
49962;SDS011;36180;57.678;11.910;2022-07-29T13:21:36;2.03;;;1.10;;
49962;SDS011;36180;57.678;11.910;2022-07-29T13:24:04;3.85;;;1.23;;
49962;SDS011;36180;57.678;11.910;2022-07-29T13:26:32;4.90;;;1.20;;
49962;SDS011;36180;57.678;11.910;2022-07-29T13:28:59;3.38;;;1.25;;
49962;SDS011;36180;57.678;11.910;2022-07-29T13:31:26;3.58;;;1.10;;
49962;SDS011;36180;57.678;11.910;2022-07-29T13:33:53;2.33;;;1.40;;
49962;SDS011;36180;57.678;11.910;2022-07-29T13:36:22;4.03;;;1.95;;
49962;SDS011;36180;57.678;11.910;2022-07-29T13:38:49;2.45;;;1.25;;
49962;SDS011;36180;57.678;11.910;2022-07-29T13:41:16;5.18;;;1.55;;
49962;SDS011;36180;57.678;11.910;2022-07-29T13:43:43;2.50;;;1.00;;
49962;SDS011;36180;57.678;11.910;2022-07-29T13:46:10;4.43;;;1.17;;
49962;SDS011;36180;57.678;11.910;2022-07-29T13:48:37;3.50;;;1.25;;
49962;SDS011;36180;57.678;11.910;2022-07-29T13:51:04;4.13;;;1.23;;
49962;SDS011;36180;57.678;11.910;2022-07-29T13:53:33;4.20;;;1.30;;
49962;SDS011;36180;57.678;11.910;2022-07-29T13:56:00;3.28;;;1.35;;
49962;SDS011;36180;57.678;11.910;2022-07-29T13:58:27;3.72;;;1.15;;
49962;SDS011;36180;57.678;11.910;2022-07-29T14:00:55;3.50;;;1.40;;
49962;SDS011;36180;57.678;11.910;2022-07-29T14:03:22;4.95;;;1.33;;
49962;SDS011;36180;57.678;11.910;2022-07-29T14:05:49;3.25;;;1.33;;
49962;SDS011;36180;57.678;11.910;2022-07-29T14:08:16;3.95;;;1.25;;
49962;SDS011;36180;57.678;11.910;2022-07-29T14:10:45;6.13;;;1.60;;
49962;SDS011;36180;57.678;11.910;2022-07-29T14:13:12;2.67;;;1.17;;
49962;SDS011;36180;57.678;11.910;2022-07-29T14:15:39;2.10;;;1.10;;
49962;SDS011;36180;57.678;11.910;2022-07-29T14:18:06;3.60;;;1.13;;
49962;SDS011;36180;57.678;11.910;2022-07-29T14:20:33;2.50;;;1.27;;
49962;SDS011;36180;57.678;11.910;2022-07-29T14:23:00;1.88;;;0.98;;
49962;SDS011;36180;57.678;11.910;2022-07-29T14:25:27;3.17;;;1.00;;
49962;SDS011;36180;57.678;11.910;2022-07-29T14:27:55;3.60;;;1.40;;
49962;SDS011;36180;57.678;11.910;2022-07-29T14:30:22;5.22;;;1.17;;
49962;SDS011;36180;57.678;11.910;2022-07-29T14:32:49;4.07;;;1.15;;
49962;SDS011;36180;57.678;11.910;2022-07-29T14:35:17;2.03;;;1.08;;
49962;SDS011;36180;57.678;11.910;2022-07-29T14:37:44;3.03;;;1.15;;
49962;SDS011;36180;57.678;11.910;2022-07-29T14:40:11;1.83;;;1.00;;
49962;SDS011;36180;57.678;11.910;2022-07-29T14:42:38;2.45;;;1.20;;
49962;SDS011;36180;57.678;11.910;2022-07-29T14:45:08;2.67;;;1.13;;
49962;SDS011;36180;57.678;11.910;2022-07-29T14:47:35;4.00;;;1.33;;
49962;SDS011;36180;57.678;11.910;2022-07-29T14:50:04;4.50;;;1.25;;
49962;SDS011;36180;57.678;11.910;2022-07-29T14:52:31;3.67;;;1.48;;
49962;SDS011;36180;57.678;11.910;2022-07-29T14:54:58;2.92;;;1.42;;
49962;SDS011;36180;57.678;11.910;2022-07-29T14:57:26;2.72;;;1.00;;
49962;SDS011;36180;57.678;11.910;2022-07-29T14:59:53;3.50;;;1.25;;
49962;SDS011;36180;57.678;11.910;2022-07-29T15:02:22;1.77;;;1.10;;
49962;SDS011;36180;57.678;11.910;2022-07-29T15:04:49;9.70;;;1.20;;